createdAt,value
2023-01-28T00:01:17.161Z,102349.31
2023-01-28T00:03:44.593Z,102351.78
2023-01-28T00:06:15.375Z,102350.63
2023-01-28T00:08:42.688Z,102348.84
2023-01-28T00:11:13.274Z,102348.03
2023-01-28T00:13:41.679Z,102347.31
2023-01-28T00:16:09.763Z,102347.16
2023-01-28T00:18:37.946Z,102349.41
2023-01-28T00:21:10.809Z,102351.91
2023-01-28T00:23:40.031Z,102344.50
2023-01-28T00:26:12.619Z,102337.09
2023-01-28T00:28:41.123Z,102340.53
2023-01-28T00:31:17.487Z,102338.69
2023-01-28T00:33:46.620Z,102342.16
2023-01-28T00:36:15.529Z,102354.88
2023-01-28T00:38:43.266Z,102354.75
2023-01-28T00:41:16.990Z,102349.00
2023-01-28T00:43:45.513Z,102342.38
2023-01-28T00:46:14.089Z,102345.91
2023-01-28T00:48:43.435Z,102344.50
2023-01-28T00:51:13.362Z,102348.31
2023-01-28T00:53:41.222Z,102347.16
2023-01-28T00:56:12.793Z,102344.41
2023-01-28T00:58:39.928Z,102352.56
2023-01-28T01:01:13.895Z,102351.97
2023-01-28T01:03:41.305Z,102355.53
2023-01-28T01:06:09.160Z,102352.66
2023-01-28T01:08:39.929Z,102355.72
2023-01-28T01:11:09.490Z,102360.22
2023-01-28T01:13:37.984Z,102348.88
2023-01-28T01:16:11.450Z,102348.63
2023-01-28T01:18:41.910Z,102344.13
2023-01-28T01:21:13.203Z,102356.72
2023-01-28T01:23:41.311Z,102345.50
2023-01-28T01:26:08.973Z,102341.44
2023-01-28T01:28:37.410Z,102345.50
2023-01-28T01:31:17.568Z,102345.56
2023-01-28T01:33:47.628Z,102345.28
2023-01-28T01:36:18.438Z,102354.97
2023-01-28T01:38:46.197Z,102351.69
2023-01-28T01:41:31.375Z,102341.94
2023-01-28T01:44:03.233Z,102348.22
2023-01-28T01:46:51.424Z,102343.09
2023-01-28T01:49:24.739Z,102361.31
2023-01-28T01:52:07.135Z,102359.88
2023-01-28T01:54:36.758Z,102362.50
2023-01-28T01:57:09.911Z,102370.22
2023-01-28T01:59:40.037Z,102365.06
2023-01-28T02:02:10.800Z,102377.88
2023-01-28T02:04:44.733Z,102379.31
2023-01-28T02:07:16.509Z,102377.59
2023-01-28T02:09:43.744Z,102372.44
2023-01-28T02:12:21.263Z,102371.69
2023-01-28T02:14:58.400Z,102380.66
2023-01-28T02:17:26.967Z,102369.78
2023-01-28T02:20:05.726Z,102370.25
2023-01-28T02:23:15.006Z,102375.28
2023-01-28T02:26:19.103Z,102382.81
2023-01-28T02:29:04.174Z,102377.19
2023-01-28T02:31:54.367Z,102380.78
2023-01-28T02:34:56.370Z,102370.25
2023-01-28T02:38:08.370Z,102365.41
2023-01-28T02:41:00.682Z,102363.47
2023-01-28T02:43:38.752Z,102352.75
2023-01-28T02:46:44.819Z,102365.94
2023-01-28T02:49:23.320Z,102363.75
2023-01-28T02:52:51.870Z,102361.09
2023-01-28T02:55:52.845Z,102355.22
2023-01-28T02:58:42.619Z,102351.41
2023-01-28T03:01:43.906Z,102365.13
2023-01-28T03:04:29.259Z,102366.44
2023-01-28T03:07:04.331Z,102367.31
2023-01-28T03:09:33.359Z,102355.50
2023-01-28T03:12:30.184Z,102360.47
2023-01-28T03:15:33.651Z,102354.31
2023-01-28T03:18:22.322Z,102349.94
2023-01-28T03:21:31.098Z,102357.75
2023-01-28T03:24:28.414Z,102353.22
2023-01-28T03:27:28.129Z,102341.81
2023-01-28T03:30:20.329Z,102335.97
2023-01-28T03:33:07.308Z,102344.56
2023-01-28T03:35:55.193Z,102354.66
2023-01-28T03:38:23.090Z,102347.69
2023-01-28T03:41:00.537Z,102359.19
2023-01-28T03:43:29.441Z,102357.06
2023-01-28T03:45:56.817Z,102355.94
2023-01-28T03:48:26.407Z,102354.56
2023-01-28T03:50:56.215Z,102356.88
2023-01-28T03:53:23.398Z,102345.28
2023-01-28T03:55:53.333Z,102349.06
2023-01-28T03:58:21.414Z,102359.44
2023-01-28T04:00:48.617Z,102350.78
2023-01-28T04:03:19.186Z,102365.81
2023-01-28T04:06:09.222Z,102365.16
2023-01-28T04:08:36.416Z,102371.38
2023-01-28T04:11:15.567Z,102366.72
2023-01-28T04:13:43.467Z,102364.69
2023-01-28T04:16:12.455Z,102360.69
2023-01-28T04:18:39.636Z,102371.75
2023-01-28T04:21:06.773Z,102369.75
2023-01-28T04:23:33.923Z,102377.66
2023-01-28T04:26:01.194Z,102377.53
2023-01-28T04:28:28.319Z,102373.50
2023-01-28T04:30:55.661Z,102380.63
2023-01-28T04:33:22.944Z,102381.56
2023-01-28T04:35:50.076Z,102388.09
2023-01-28T04:38:17.172Z,102380.00
2023-01-28T04:40:44.302Z,102389.50
2023-01-28T04:43:11.433Z,102391.34
2023-01-28T04:45:38.573Z,102391.47
2023-01-28T04:48:06.073Z,102382.88
2023-01-28T04:50:33.212Z,102395.25
2023-01-28T04:53:00.357Z,102397.41
2023-01-28T04:55:27.506Z,102391.47
2023-01-28T04:57:54.645Z,102389.31
2023-01-28T05:00:22.082Z,102393.94
2023-01-28T05:02:49.223Z,102389.41
2023-01-28T05:05:16.808Z,102390.59
2023-01-28T05:07:50.228Z,102398.34
2023-01-28T05:10:18.103Z,102387.75
2023-01-28T05:12:45.921Z,102397.22
2023-01-28T05:15:13.616Z,102388.06
2023-01-28T05:17:41.438Z,102391.97
2023-01-28T05:20:12.120Z,102398.59
2023-01-28T05:22:40.256Z,102392.53
2023-01-28T05:25:08.495Z,102385.84
2023-01-28T05:27:35.610Z,102395.94
2023-01-28T05:30:02.885Z,102393.28
2023-01-28T05:32:30.144Z,102403.28
2023-01-28T05:34:57.309Z,102403.84
2023-01-28T05:37:24.489Z,102395.47
2023-01-28T05:39:51.638Z,102384.47
2023-01-28T05:42:20.753Z,102385.34
2023-01-28T05:44:48.069Z,102386.22
2023-01-28T05:47:15.210Z,102384.53
2023-01-28T05:49:42.438Z,102378.50
2023-01-28T05:52:09.576Z,102385.91
2023-01-28T05:54:36.719Z,102384.94
2023-01-28T05:57:04.486Z,102379.94
2023-01-28T05:59:31.595Z,102381.44
2023-01-28T06:01:58.784Z,102377.16
2023-01-28T06:04:25.927Z,102385.34
2023-01-28T06:06:53.352Z,102380.06
2023-01-28T06:09:20.481Z,102378.59
2023-01-28T06:11:47.644Z,102386.28
2023-01-28T06:14:14.769Z,102391.59
2023-01-28T06:16:41.921Z,102392.72
2023-01-28T06:19:09.063Z,102390.44
2023-01-28T06:21:36.303Z,102388.47
2023-01-28T06:24:03.549Z,102393.97
2023-01-28T06:26:30.772Z,102397.31
2023-01-28T06:28:57.885Z,102399.47
2023-01-28T06:31:25.155Z,102393.44
2023-01-28T06:33:52.306Z,102392.72
2023-01-28T06:36:19.455Z,102397.97
2023-01-28T06:38:46.873Z,102395.56
2023-01-28T06:41:14.043Z,102387.84
2023-01-28T06:43:41.216Z,102394.22
2023-01-28T06:46:08.418Z,102393.50
2023-01-28T06:48:35.585Z,102399.47
2023-01-28T06:51:02.716Z,102398.03
2023-01-28T06:53:29.889Z,102398.69
2023-01-28T06:55:57.033Z,102401.94
2023-01-28T06:58:24.314Z,102399.72
2023-01-28T07:00:52.773Z,102391.97
2023-01-28T07:03:19.964Z,102407.38
2023-01-28T07:05:47.386Z,102406.81
2023-01-28T07:08:14.553Z,102407.03
2023-01-28T07:10:41.746Z,102410.09
2023-01-28T07:13:08.925Z,102408.88
2023-01-28T07:15:36.773Z,102400.84
2023-01-28T07:18:05.430Z,102400.22
2023-01-28T07:20:32.576Z,102403.38
2023-01-28T07:22:59.738Z,102400.44
2023-01-28T07:25:26.888Z,102407.00
2023-01-28T07:27:54.219Z,102398.91
2023-01-28T07:30:22.237Z,102408.59
2023-01-28T07:32:54.918Z,102401.06
2023-01-28T07:35:23.271Z,102406.59
2023-01-28T07:37:55.949Z,102402.03
2023-01-28T07:40:24.912Z,102406.81
2023-01-28T07:42:54.470Z,102406.88
2023-01-28T07:45:23.460Z,102410.50
2023-01-28T07:47:58.522Z,102408.25
2023-01-28T07:50:26.916Z,102410.09
2023-01-28T07:52:54.062Z,102420.34
2023-01-28T07:55:21.821Z,102423.47
2023-01-28T07:57:55.866Z,102429.13
2023-01-28T08:00:25.176Z,102428.97
2023-01-28T08:02:58.064Z,102436.63
2023-01-28T08:05:27.661Z,102433.09
2023-01-28T08:07:54.800Z,102427.88
2023-01-28T08:10:21.938Z,102437.25
2023-01-28T08:12:58.856Z,102441.78
2023-01-28T08:15:27.104Z,102450.56
2023-01-28T08:17:56.249Z,102440.59
2023-01-28T08:20:26.487Z,102443.06
2023-01-28T08:22:54.393Z,102443.38
2023-01-28T08:25:21.537Z,102448.81
2023-01-28T08:27:48.710Z,102451.19
2023-01-28T08:30:16.256Z,102452.06
2023-01-28T08:32:43.711Z,102453.81
2023-01-28T08:35:10.879Z,102467.38
2023-01-28T08:37:37.997Z,102457.16
2023-01-28T08:40:06.279Z,102462.28
2023-01-28T08:42:33.465Z,102459.81
2023-01-28T08:45:00.586Z,102454.75
2023-01-28T08:47:27.708Z,102454.34
2023-01-28T08:49:54.841Z,102467.03
2023-01-28T08:52:21.948Z,102478.13
2023-01-28T08:54:49.091Z,102476.53
2023-01-28T08:57:16.238Z,102487.31
2023-01-28T08:59:46.162Z,102484.41
2023-01-28T09:02:30.265Z,102491.09
2023-01-28T09:04:59.195Z,102494.94
2023-01-28T09:07:26.379Z,102500.44
2023-01-28T09:09:53.572Z,102493.47
2023-01-28T09:12:20.718Z,102497.09
2023-01-28T09:14:47.882Z,102492.97
2023-01-28T09:17:15.049Z,102496.00
2023-01-28T09:19:42.182Z,102497.72
2023-01-28T09:22:09.551Z,102502.75
2023-01-28T09:24:38.827Z,102502.78
2023-01-28T09:27:06.894Z,102507.38
2023-01-28T09:29:35.038Z,102521.06
2023-01-28T09:32:02.238Z,102519.91
2023-01-28T09:34:29.583Z,102531.31
2023-01-28T09:36:57.137Z,102519.75
2023-01-28T09:39:25.722Z,102525.66
2023-01-28T09:42:47.647Z,102536.34
2023-01-28T09:45:34.724Z,102525.16
2023-01-28T09:48:06.624Z,102532.72
2023-01-28T09:50:47.741Z,102535.38
2023-01-28T09:53:33.455Z,102540.94
2023-01-28T09:56:03.914Z,102536.53
2023-01-28T09:58:31.886Z,102545.00
2023-01-28T10:01:44.805Z,102549.16
2023-01-28T10:04:46.836Z,102536.00
2023-01-28T10:07:34.193Z,102534.06
2023-01-28T10:10:15.008Z,102527.88
2023-01-28T10:12:58.524Z,102528.56
2023-01-28T10:16:05.689Z,102524.59
2023-01-28T10:18:50.628Z,102519.63
2023-01-28T10:21:34.575Z,102532.66
2023-01-28T10:24:31.790Z,102527.31
2023-01-28T10:26:59.448Z,102518.69
2023-01-28T10:29:35.214Z,102525.06
2023-01-28T10:32:34.318Z,102523.53
2023-01-28T10:35:03.432Z,102511.78
2023-01-28T10:37:36.800Z,102515.25
2023-01-28T10:40:05.308Z,102506.41
2023-01-28T10:42:38.130Z,102515.09
2023-01-28T10:45:26.891Z,102524.59
2023-01-28T10:48:21.186Z,102512.72
2023-01-28T10:51:06.033Z,102512.94
2023-01-28T10:53:45.067Z,102510.88
2023-01-28T10:56:25.889Z,102507.06
2023-01-28T10:59:01.379Z,102523.56
2023-01-28T11:01:49.219Z,102525.63
2023-01-28T11:04:26.839Z,102515.25
2023-01-28T11:07:06.559Z,102517.72
2023-01-28T11:09:37.666Z,102510.41
2023-01-28T11:12:21.357Z,102523.44
2023-01-28T11:14:59.404Z,102519.16
2023-01-28T11:17:34.632Z,102525.88
2023-01-28T11:20:21.312Z,102525.00
2023-01-28T11:22:50.185Z,102525.16
2023-01-28T11:25:37.297Z,102518.22
2023-01-28T11:28:15.815Z,102511.19
2023-01-28T11:30:42.998Z,102504.97
2023-01-28T11:33:21.363Z,102498.91
2023-01-28T11:35:58.430Z,102495.72
2023-01-28T11:38:26.459Z,102510.88
2023-01-28T11:40:57.157Z,102508.97
2023-01-28T11:43:28.503Z,102502.66
2023-01-28T11:46:07.538Z,102501.94
2023-01-28T11:48:45.609Z,102482.81
2023-01-28T11:51:47.266Z,102483.47
2023-01-28T11:54:38.215Z,102483.06
2023-01-28T11:57:24.759Z,102487.44
2023-01-28T12:00:23.853Z,102475.81
2023-01-28T12:03:32.812Z,102470.53
2023-01-28T12:06:40.668Z,102465.22
2023-01-28T12:09:24.808Z,102460.13
2023-01-28T12:12:11.807Z,102458.94
2023-01-28T12:15:22.440Z,102436.09
2023-01-28T12:18:23.856Z,102452.69
2023-01-28T12:21:16.600Z,102450.56
2023-01-28T12:24:05.175Z,102439.28
2023-01-28T12:27:16.058Z,102428.69
2023-01-28T12:30:11.706Z,102429.50
2023-01-28T12:33:22.167Z,102416.09
2023-01-28T12:36:32.380Z,102399.34
2023-01-28T12:40:04.760Z,102396.03
2023-01-28T12:42:42.559Z,102380.97
2023-01-28T12:45:40.601Z,102363.69
2023-01-28T12:48:37.703Z,102348.00
2023-01-28T12:51:15.691Z,102346.25
2023-01-28T12:54:01.346Z,102339.63
2023-01-28T12:56:43.371Z,102331.50
2023-01-28T12:59:18.418Z,102327.84
2023-01-28T13:02:01.870Z,102323.31
2023-01-28T13:04:45.214Z,102325.66
2023-01-28T13:07:59.054Z,102313.81
2023-01-28T13:10:52.764Z,102323.56
2023-01-28T13:13:38.837Z,102343.13
2023-01-28T13:16:10.341Z,102355.94
2023-01-28T13:18:40.584Z,102350.41
2023-01-28T13:21:26.407Z,102349.53
2023-01-28T13:24:20.834Z,102364.69
2023-01-28T13:26:58.454Z,102348.38
2023-01-28T13:29:25.519Z,102364.38
2023-01-28T13:31:56.673Z,102373.88
2023-01-28T13:34:43.635Z,102369.94
2023-01-28T13:37:33.071Z,102372.84
2023-01-28T13:40:27.905Z,102359.00
2023-01-28T13:43:03.943Z,102363.25
2023-01-28T13:45:33.553Z,102362.59
2023-01-28T13:48:28.342Z,102378.38
2023-01-28T13:50:57.371Z,102380.72
2023-01-28T13:53:45.343Z,102380.06
2023-01-28T13:56:26.819Z,102375.91
2023-01-28T13:59:24.906Z,102391.81
2023-01-28T14:02:57.594Z,102399.31
2023-01-28T14:06:28.563Z,102408.06
2023-01-28T14:09:30.846Z,102412.34
2023-01-28T14:12:38.218Z,102393.78
2023-01-28T14:15:36.265Z,102378.84
2023-01-28T14:18:22.455Z,102374.75
2023-01-28T14:20:51.410Z,102354.34
2023-01-28T14:23:22.114Z,102352.00
2023-01-28T14:26:15.785Z,102344.72
2023-01-28T14:28:50.442Z,102329.72
2023-01-28T14:31:35.836Z,102324.19
2023-01-28T14:34:32.640Z,102334.09
2023-01-28T14:37:14.991Z,102336.13
2023-01-28T14:39:57.444Z,102337.00
2023-01-28T14:42:31.086Z,102347.75
2023-01-28T14:45:22.508Z,102347.19
2023-01-28T14:48:28.729Z,102350.38
2023-01-28T14:51:07.396Z,102362.31
2023-01-28T14:54:03.819Z,102357.03
2023-01-28T14:56:56.568Z,102356.16
2023-01-28T14:59:42.268Z,102359.28
2023-01-28T15:02:25.730Z,102362.22
2023-01-28T15:04:55.639Z,102365.16
2023-01-28T15:07:26.634Z,102377.72
2023-01-28T15:10:03.537Z,102376.34
2023-01-28T15:12:37.531Z,102383.97
2023-01-28T15:15:11.484Z,102391.56
2023-01-28T15:17:38.805Z,102390.59
2023-01-28T15:20:08.324Z,102388.25
2023-01-28T15:22:35.705Z,102403.44
2023-01-28T15:25:03.687Z,102397.19
2023-01-28T15:27:31.971Z,102390.13
2023-01-28T15:29:59.768Z,102391.03
2023-01-28T15:32:30.814Z,102394.25
2023-01-28T15:35:01.371Z,102397.03
2023-01-28T15:37:28.623Z,102397.66
2023-01-28T15:40:06.113Z,102392.06
2023-01-28T15:42:34.350Z,102393.59
2023-01-28T15:45:01.822Z,102394.53
2023-01-28T15:47:33.778Z,102394.56
2023-01-28T15:50:08.209Z,102401.06
2023-01-28T15:52:45.332Z,102402.19
2023-01-28T15:55:35.111Z,102404.09
2023-01-28T15:58:30.244Z,102405.72
2023-01-28T16:01:09.712Z,102400.28
2023-01-28T16:03:40.003Z,102399.63
2023-01-28T16:06:21.988Z,102408.56
2023-01-28T16:08:58.838Z,102413.34
2023-01-28T16:11:35.285Z,102410.41
2023-01-28T16:14:03.436Z,102420.84
2023-01-28T16:16:37.596Z,102439.13
2023-01-28T16:19:07.504Z,102449.66
2023-01-28T16:21:43.189Z,102437.41
2023-01-28T16:24:25.478Z,102436.63
2023-01-28T16:27:04.166Z,102437.41
2023-01-28T16:29:32.123Z,102422.00
2023-01-28T16:32:00.625Z,102422.84
2023-01-28T16:34:27.876Z,102417.09
2023-01-28T16:37:00.059Z,102415.66
2023-01-28T16:39:27.479Z,102418.03
2023-01-28T16:41:56.983Z,102408.91
2023-01-28T16:44:24.225Z,102411.19
2023-01-28T16:46:51.603Z,102411.13
2023-01-28T16:49:18.842Z,102404.22
2023-01-28T16:51:46.235Z,102391.63
2023-01-28T16:54:16.505Z,102392.41
2023-01-28T16:56:46.191Z,102390.88
2023-01-28T16:59:16.368Z,102402.91
2023-01-28T17:01:47.569Z,102394.25
2023-01-28T17:04:15.625Z,102389.59
2023-01-28T17:06:45.127Z,102390.06
2023-01-28T17:09:14.418Z,102398.28
2023-01-28T17:11:41.963Z,102410.78
2023-01-28T17:14:10.774Z,102412.66
2023-01-28T17:16:38.693Z,102410.47
2023-01-28T17:19:06.562Z,102404.97
2023-01-28T17:21:33.785Z,102408.78
2023-01-28T17:24:01.713Z,102399.28
2023-01-28T17:26:29.104Z,102389.75
2023-01-28T17:28:56.566Z,102388.91
2023-01-28T17:31:24.070Z,102399.69
2023-01-28T17:33:55.841Z,102395.56
2023-01-28T17:36:24.591Z,102393.94
2023-01-28T17:38:52.199Z,102401.88
2023-01-28T17:41:22.031Z,102402.00
2023-01-28T17:43:56.653Z,102396.13
2023-01-28T17:46:25.634Z,102394.06
2023-01-28T17:48:53.562Z,102405.44
2023-01-28T17:51:20.760Z,102404.38
2023-01-28T17:53:53.178Z,102398.25
2023-01-28T17:56:22.907Z,102412.97
2023-01-28T17:58:55.490Z,102417.06
2023-01-28T18:01:25.478Z,102427.94
2023-01-28T18:03:53.871Z,102423.63
2023-01-28T18:06:21.865Z,102421.25
2023-01-28T18:08:49.159Z,102427.19
2023-01-28T18:11:19.388Z,102423.00
2023-01-28T18:13:47.118Z,102430.69
2023-01-28T18:16:18.213Z,102423.63
2023-01-28T18:18:45.879Z,102415.81
2023-01-28T18:21:52.079Z,102427.94
2023-01-28T18:24:24.153Z,102427.84
2023-01-28T18:26:55.303Z,102431.22
2023-01-28T18:29:24.080Z,102431.19
2023-01-28T18:31:56.842Z,102423.00
2023-01-28T18:34:28.588Z,102425.75
2023-01-28T18:36:57.240Z,102430.41
2023-01-28T18:39:30.129Z,102429.22
2023-01-28T18:41:58.219Z,102417.84
2023-01-28T18:44:29.937Z,102413.59
2023-01-28T18:46:57.261Z,102417.97
2023-01-28T18:49:24.566Z,102429.63
2023-01-28T18:51:51.759Z,102437.06
2023-01-28T18:54:20.314Z,102437.34
2023-01-28T18:56:49.091Z,102446.03
2023-01-28T18:59:16.521Z,102445.50
2023-01-28T19:01:44.243Z,102451.84
2023-01-28T19:04:11.540Z,102460.84
2023-01-28T19:06:38.754Z,102470.63
2023-01-28T19:09:09.677Z,102468.56
2023-01-28T19:11:38.604Z,102468.56
2023-01-28T19:14:06.288Z,102470.09
2023-01-28T19:16:35.354Z,102483.66
2023-01-28T19:19:04.929Z,102487.81
2023-01-28T19:21:34.033Z,102488.97
2023-01-28T19:24:06.932Z,102482.50
2023-01-28T19:26:34.256Z,102478.81
2023-01-28T19:29:01.657Z,102478.66
2023-01-28T19:31:29.764Z,102457.28
2023-01-28T19:33:59.990Z,102451.44
2023-01-28T19:36:31.172Z,102454.69
2023-01-28T19:39:01.401Z,102453.22
2023-01-28T19:41:29.463Z,102445.97
2023-01-28T19:43:57.470Z,102434.56
2023-01-28T19:46:25.371Z,102422.47
2023-01-28T19:48:52.909Z,102425.75
2023-01-28T19:51:20.474Z,102415.72
2023-01-28T19:53:51.598Z,102420.28
2023-01-28T19:56:21.010Z,102420.56
2023-01-28T19:58:48.926Z,102412.22
2023-01-28T20:01:23.768Z,102406.44
2023-01-28T20:03:55.017Z,102407.94
2023-01-28T20:06:23.847Z,102412.34
2023-01-28T20:08:57.040Z,102404.28
2023-01-28T20:11:24.887Z,102404.53
2023-01-28T20:13:54.736Z,102404.47
2023-01-28T20:16:28.613Z,102413.66
2023-01-28T20:19:03.471Z,102421.06
2023-01-28T20:21:32.054Z,102406.38
2023-01-28T20:24:01.723Z,102422.66
2023-01-28T20:26:33.531Z,102405.38
2023-01-28T20:29:04.231Z,102415.91
2023-01-28T20:31:33.061Z,102413.13
2023-01-28T20:34:00.908Z,102413.50
2023-01-28T20:36:28.093Z,102413.66
2023-01-28T20:38:55.300Z,102408.03
2023-01-28T20:41:25.100Z,102404.28
2023-01-28T20:43:54.969Z,102398.25
2023-01-28T20:46:30.494Z,102408.50
2023-01-28T20:49:03.012Z,102409.59
2023-01-28T20:51:34.569Z,102413.19
2023-01-28T20:54:03.073Z,102411.81
2023-01-28T20:56:31.829Z,102406.59
2023-01-28T20:59:02.778Z,102394.50
2023-01-28T21:01:34.228Z,102391.97
2023-01-28T21:04:02.594Z,102398.97
2023-01-28T21:06:30.023Z,102395.13
2023-01-28T21:08:57.615Z,102388.69
2023-01-28T21:11:26.356Z,102387.41
2023-01-28T21:13:54.401Z,102390.03
2023-01-28T21:16:22.277Z,102378.94
2023-01-28T21:18:50.351Z,102375.38
2023-01-28T21:21:27.707Z,102367.69
2023-01-28T21:23:57.684Z,102375.00
2023-01-28T21:26:25.399Z,102372.88
2023-01-28T21:28:52.580Z,102382.00
2023-01-28T21:31:25.791Z,102375.00
2023-01-28T21:33:56.311Z,102382.34
2023-01-28T21:36:25.405Z,102383.16
2023-01-28T21:38:59.190Z,102370.84
2023-01-28T21:41:28.013Z,102385.13
2023-01-28T21:43:57.620Z,102384.19
2023-01-28T21:46:31.101Z,102374.88
2023-01-28T21:49:04.186Z,102361.38
2023-01-28T21:51:39.470Z,102375.38
2023-01-28T21:54:16.310Z,102383.75
2023-01-28T21:56:45.401Z,102390.06
2023-01-28T21:59:28.891Z,102385.69
2023-01-28T22:02:11.477Z,102386.81
2023-01-28T22:04:43.524Z,102391.94
2023-01-28T22:07:17.185Z,102379.81
2023-01-28T22:09:46.480Z,102380.06
2023-01-28T22:12:15.405Z,102377.59
2023-01-28T22:14:43.440Z,102379.06
2023-01-28T22:17:11.825Z,102381.03
2023-01-28T22:19:40.346Z,102381.94
2023-01-28T22:22:07.550Z,102376.19
2023-01-28T22:24:34.719Z,102373.19
2023-01-28T22:27:01.903Z,102368.66
2023-01-28T22:29:29.086Z,102362.66
2023-01-28T22:31:56.314Z,102363.97
2023-01-28T22:34:23.894Z,102363.00
2023-01-28T22:36:51.810Z,102352.34
2023-01-28T22:39:19.234Z,102356.56
2023-01-28T22:41:47.277Z,102355.13
2023-01-28T22:44:14.898Z,102351.47
2023-01-28T22:46:42.186Z,102353.63
2023-01-28T22:49:11.827Z,102353.19
2023-01-28T22:51:39.079Z,102360.34
2023-01-28T22:54:06.389Z,102363.06
2023-01-28T22:56:33.582Z,102360.91
2023-01-28T22:59:03.592Z,102356.47
2023-01-28T23:01:31.443Z,102359.34
2023-01-28T23:03:59.082Z,102346.44
2023-01-28T23:06:27.965Z,102348.91
2023-01-28T23:08:56.404Z,102358.13
2023-01-28T23:11:25.422Z,102352.81
2023-01-28T23:14:15.972Z,102355.50
2023-01-28T23:17:02.406Z,102359.50
2023-01-28T23:19:48.472Z,102350.19
2023-01-28T23:22:54.759Z,102350.59
2023-01-28T23:25:23.971Z,102351.91
2023-01-28T23:27:51.122Z,102351.53
2023-01-28T23:30:24.427Z,102356.06
2023-01-28T23:32:57.567Z,102352.50
2023-01-28T23:35:25.870Z,102339.84
2023-01-28T23:37:54.834Z,102335.75
2023-01-28T23:40:24.412Z,102333.66
2023-01-28T23:42:52.471Z,102332.13
2023-01-28T23:45:21.067Z,102318.25
2023-01-28T23:47:48.769Z,102322.72
2023-01-28T23:50:16.757Z,102326.16
2023-01-28T23:52:44.134Z,102320.41
2023-01-28T23:55:11.280Z,102326.22
2023-01-28T23:57:38.410Z,102325.91
